Dayton, OH (45448)

6:29 AM EST on November 26, 2014 (GMT -0500)
Centerville/Kettering - Rahn Rd | Change Station
CLOSE
Current Station
Personal Weather Station
Location: Kettering, OH
Elevation: 1000 ft
Nearby Weather Stations

Elev 1000 ft 39.67 °N, 84.14 °W | Updated 3 minutes ago

Overcast
Overcast
28.0 °F
Feels Like 22 °F
N
5.0
Wind Variable Wind from North
Gusts 9.0 mph

Today
High -- | Low -- °F
--% Chance of Precip.
Yesterday
High -- | Low -- °F
Precip. -- in
7:33 AM 5:14 PM
Waxing Crescent, 19% visible
Pressure 30.14 in
Visibility 9.0 miles
Clouds Overcast 1000 ft
Windchill 22 °F
Dew Point 25 °F
Humidity 89%
Rainfall 0.00 in
Snow Depth Not available.
UV 0 out of 12
Pollen .10 out of 12
Air Quality Not available.
Flu Activity Not available.
METAR KMGY 261053Z AUTO 05006KT 9SM OVC010 M02/M04 A3011 RMK AO2 SLP204 T10221039

More Conditions Fewer Conditions

Pressure 30.14 in
Visibility 9.0 miles
Clouds Overcast 1000 ft
Windchill 22 °F
Dew Point 25 °F
Humidity 89%
Rainfall 0.00 in
Snow Depth Not available.
UV 0 out of 12
Pollen .10 out of 12
Air Quality Not available.
Flu Activity Not available.
METAR KMGY 261053Z AUTO 05006KT 9SM OVC010 M02/M04 A3011 RMK AO2 SLP204 T10221039

More Conditions Fewer Conditions

10-Day Weather Forecast

Almanac

Astronomy

Nov. 26, 2014 Rise Set
Actual Time
Civil Twilight
Nautical Twilight
Astronomical Twilight
Moon
Length of Visible Light
Length of Day
Tomorrow will be .
, % of the Moon is Illuminated

Today's Extremes

State Highs State Lows

Community

WunderPhotos

Upload Photos

1,773,708 photos uploaded!

WunderBlogs® & News

Nearby

Air Quality

  Air Quality AQ Index Pollutant
Not available.

Snow Depth

Station Depth Elevation

Earthquake Activity

City Distance Mag. Time & Date
Minimum magnitude displayed is 2.5.

Coastal Water Temperatures

Place Temperature

Nearby Weather Stations